sensor_id;sensor_type;location;lat;lon;timestamp;P1;durP1;ratioP1;P2;durP2;ratioP2
85622;SDS011;76049;43.076;25.632;2024-02-23T00:03:59;9.90;;;5.90;;
85622;SDS011;76049;43.076;25.632;2024-02-23T00:09:07;9.60;;;4.80;;
85622;SDS011;76049;43.076;25.632;2024-02-23T00:14:14;10.50;;;5.70;;
85622;SDS011;76049;43.076;25.632;2024-02-23T00:19:22;11.90;;;7.60;;
85622;SDS011;76049;43.076;25.632;2024-02-23T00:24:29;11.90;;;7.60;;
85622;SDS011;76049;43.076;25.632;2024-02-23T00:29:37;12.10;;;7.10;;
85622;SDS011;76049;43.076;25.632;2024-02-23T00:34:44;11.60;;;6.80;;
85622;SDS011;76049;43.076;25.632;2024-02-23T00:39:52;13.60;;;7.60;;
85622;SDS011;76049;43.076;25.632;2024-02-23T00:44:59;14.20;;;7.70;;
85622;SDS011;76049;43.076;25.632;2024-02-23T00:50:07;15.30;;;8.20;;
85622;SDS011;76049;43.076;25.632;2024-02-23T00:55:16;17.20;;;9.20;;
85622;SDS011;76049;43.076;25.632;2024-02-23T01:00:24;14.60;;;8.10;;
85622;SDS011;76049;43.076;25.632;2024-02-23T01:05:31;14.20;;;10.10;;
85622;SDS011;76049;43.076;25.632;2024-02-23T01:10:39;12.60;;;7.80;;
85622;SDS011;76049;43.076;25.632;2024-02-23T01:15:46;14.20;;;8.40;;
85622;SDS011;76049;43.076;25.632;2024-02-23T01:20:53;13.00;;;7.80;;
85622;SDS011;76049;43.076;25.632;2024-02-23T01:26:01;13.50;;;7.60;;
85622;SDS011;76049;43.076;25.632;2024-02-23T01:31:09;10.80;;;6.40;;
85622;SDS011;76049;43.076;25.632;2024-02-23T01:36:17;11.90;;;7.70;;
85622;SDS011;76049;43.076;25.632;2024-02-23T01:41:24;11.80;;;8.00;;
85622;SDS011;76049;43.076;25.632;2024-02-23T01:46:32;12.80;;;6.00;;
85622;SDS011;76049;43.076;25.632;2024-02-23T01:51:41;13.00;;;8.60;;
85622;SDS011;76049;43.076;25.632;2024-02-23T01:56:48;11.80;;;7.40;;
85622;SDS011;76049;43.076;25.632;2024-02-23T02:01:56;11.70;;;7.70;;
85622;SDS011;76049;43.076;25.632;2024-02-23T02:07:04;11.40;;;7.20;;
85622;SDS011;76049;43.076;25.632;2024-02-23T02:12:12;15.10;;;7.80;;
85622;SDS011;76049;43.076;25.632;2024-02-23T02:24:59;14.00;;;7.80;;
85622;SDS011;76049;43.076;25.632;2024-02-23T02:38:05;13.60;;;8.10;;
85622;SDS011;76049;43.076;25.632;2024-02-23T02:43:14;13.70;;;8.40;;
85622;SDS011;76049;43.076;25.632;2024-02-23T02:48:21;12.20;;;8.30;;
85622;SDS011;76049;43.076;25.632;2024-02-23T02:53:29;11.60;;;6.70;;
85622;SDS011;76049;43.076;25.632;2024-02-23T02:58:37;13.90;;;6.90;;
85622;SDS011;76049;43.076;25.632;2024-02-23T03:03:44;9.50;;;4.90;;
85622;SDS011;76049;43.076;25.632;2024-02-23T03:08:51;11.40;;;6.90;;
85622;SDS011;76049;43.076;25.632;2024-02-23T03:13:59;11.60;;;7.50;;
85622;SDS011;76049;43.076;25.632;2024-02-23T03:19:07;11.90;;;6.70;;
85622;SDS011;76049;43.076;25.632;2024-02-23T03:24:14;12.00;;;8.20;;
85622;SDS011;76049;43.076;25.632;2024-02-23T03:29:22;13.40;;;7.30;;
85622;SDS011;76049;43.076;25.632;2024-02-23T03:34:33;10.70;;;6.00;;
85622;SDS011;76049;43.076;25.632;2024-02-23T03:39:40;14.60;;;8.50;;
85622;SDS011;76049;43.076;25.632;2024-02-23T03:44:47;11.00;;;5.80;;
85622;SDS011;76049;43.076;25.632;2024-02-23T03:49:55;13.10;;;7.10;;
85622;SDS011;76049;43.076;25.632;2024-02-23T03:55:03;14.40;;;7.90;;
85622;SDS011;76049;43.076;25.632;2024-02-23T04:00:12;17.60;;;9.50;;
85622;SDS011;76049;43.076;25.632;2024-02-23T04:05:20;12.60;;;7.20;;
85622;SDS011;76049;43.076;25.632;2024-02-23T04:10:27;12.50;;;7.40;;
85622;SDS011;76049;43.076;25.632;2024-02-23T04:15:34;14.30;;;8.60;;
85622;SDS011;76049;43.076;25.632;2024-02-23T04:20:42;13.00;;;8.40;;
85622;SDS011;76049;43.076;25.632;2024-02-23T04:25:49;13.20;;;7.30;;
85622;SDS011;76049;43.076;25.632;2024-02-23T04:30:57;14.00;;;8.10;;
85622;SDS011;76049;43.076;25.632;2024-02-23T04:36:05;14.30;;;7.60;;
85622;SDS011;76049;43.076;25.632;2024-02-23T04:41:13;13.60;;;9.20;;
85622;SDS011;76049;43.076;25.632;2024-02-23T04:51:30;12.00;;;7.50;;
85622;SDS011;76049;43.076;25.632;2024-02-23T04:56:37;11.30;;;5.50;;
85622;SDS011;76049;43.076;25.632;2024-02-23T05:01:45;12.60;;;7.20;;
85622;SDS011;76049;43.076;25.632;2024-02-23T05:06:52;16.70;;;9.90;;
85622;SDS011;76049;43.076;25.632;2024-02-23T05:12:00;14.40;;;9.40;;
85622;SDS011;76049;43.076;25.632;2024-02-23T05:17:07;15.00;;;9.10;;
85622;SDS011;76049;43.076;25.632;2024-02-23T05:22:14;13.20;;;8.60;;
85622;SDS011;76049;43.076;25.632;2024-02-23T05:27:23;15.70;;;8.90;;
85622;SDS011;76049;43.076;25.632;2024-02-23T05:32:31;19.60;;;12.70;;
85622;SDS011;76049;43.076;25.632;2024-02-23T05:37:39;17.40;;;10.90;;
85622;SDS011;76049;43.076;25.632;2024-02-23T05:42:46;18.70;;;10.20;;
85622;SDS011;76049;43.076;25.632;2024-02-23T05:47:53;27.00;;;17.40;;
85622;SDS011;76049;43.076;25.632;2024-02-23T05:53:00;24.10;;;13.60;;
85622;SDS011;76049;43.076;25.632;2024-02-23T05:58:08;27.50;;;12.90;;
85622;SDS011;76049;43.076;25.632;2024-02-23T06:03:17;27.70;;;15.00;;
85622;SDS011;76049;43.076;25.632;2024-02-23T06:08:25;28.00;;;16.00;;
85622;SDS011;76049;43.076;25.632;2024-02-23T06:13:32;23.30;;;13.10;;
85622;SDS011;76049;43.076;25.632;2024-02-23T06:18:40;32.60;;;15.50;;
85622;SDS011;76049;43.076;25.632;2024-02-23T06:23:47;35.00;;;14.40;;
85622;SDS011;76049;43.076;25.632;2024-02-23T06:28:54;28.10;;;12.30;;
85622;SDS011;76049;43.076;25.632;2024-02-23T06:34:02;26.20;;;10.70;;
85622;SDS011;76049;43.076;25.632;2024-02-23T06:39:09;23.50;;;10.50;;
85622;SDS011;76049;43.076;25.632;2024-02-23T06:44:16;22.40;;;12.00;;
85622;SDS011;76049;43.076;25.632;2024-02-23T06:49:24;27.70;;;12.90;;
85622;SDS011;76049;43.076;25.632;2024-02-23T06:54:31;23.80;;;11.70;;
85622;SDS011;76049;43.076;25.632;2024-02-23T06:59:39;17.20;;;9.20;;
85622;SDS011;76049;43.076;25.632;2024-02-23T07:04:46;20.60;;;13.30;;
85622;SDS011;76049;43.076;25.632;2024-02-23T07:09:54;23.00;;;11.60;;
85622;SDS011;76049;43.076;25.632;2024-02-23T07:15:01;14.90;;;8.90;;
85622;SDS011;76049;43.076;25.632;2024-02-23T07:20:09;15.50;;;8.90;;
85622;SDS011;76049;43.076;25.632;2024-02-23T07:25:17;18.30;;;8.50;;
85622;SDS011;76049;43.076;25.632;2024-02-23T07:30:25;13.80;;;8.20;;
85622;SDS011;76049;43.076;25.632;2024-02-23T07:35:33;12.00;;;5.90;;
85622;SDS011;76049;43.076;25.632;2024-02-23T07:40:40;10.70;;;5.70;;
85622;SDS011;76049;43.076;25.632;2024-02-23T07:45:49;9.90;;;5.30;;
85622;SDS011;76049;43.076;25.632;2024-02-23T07:50:56;12.40;;;5.50;;
85622;SDS011;76049;43.076;25.632;2024-02-23T07:56:04;9.90;;;5.80;;
85622;SDS011;76049;43.076;25.632;2024-02-23T08:01:13;12.30;;;5.60;;
85622;SDS011;76049;43.076;25.632;2024-02-23T08:06:21;8.70;;;4.30;;
85622;SDS011;76049;43.076;25.632;2024-02-23T08:11:28;12.80;;;5.30;;
85622;SDS011;76049;43.076;25.632;2024-02-23T08:16:36;10.60;;;4.90;;
85622;SDS011;76049;43.076;25.632;2024-02-23T08:21:44;7.10;;;3.30;;
85622;SDS011;76049;43.076;25.632;2024-02-23T08:26:51;9.00;;;4.20;;
85622;SDS011;76049;43.076;25.632;2024-02-23T08:31:59;9.90;;;3.40;;
85622;SDS011;76049;43.076;25.632;2024-02-23T08:37:07;7.40;;;3.40;;
85622;SDS011;76049;43.076;25.632;2024-02-23T08:42:14;7.20;;;3.90;;
85622;SDS011;76049;43.076;25.632;2024-02-23T08:47:22;10.10;;;4.10;;
85622;SDS011;76049;43.076;25.632;2024-02-23T08:59:06;6.90;;;3.10;;
85622;SDS011;76049;43.076;25.632;2024-02-23T09:12:11;12.60;;;9.90;;
85622;SDS011;76049;43.076;25.632;2024-02-23T09:17:20;7.90;;;4.40;;
85622;SDS011;76049;43.076;25.632;2024-02-23T09:22:27;7.90;;;5.10;;
85622;SDS011;76049;43.076;25.632;2024-02-23T09:27:35;9.60;;;4.40;;
85622;SDS011;76049;43.076;25.632;2024-02-23T09:32:47;7.60;;;4.20;;
85622;SDS011;76049;43.076;25.632;2024-02-23T09:37:54;8.20;;;4.90;;
85622;SDS011;76049;43.076;25.632;2024-02-23T09:43:01;7.80;;;3.30;;
85622;SDS011;76049;43.076;25.632;2024-02-23T09:48:13;8.20;;;4.10;;
85622;SDS011;76049;43.076;25.632;2024-02-23T09:53:23;7.30;;;2.10;;
85622;SDS011;76049;43.076;25.632;2024-02-23T09:58:31;6.30;;;3.10;;
85622;SDS011;76049;43.076;25.632;2024-02-23T10:03:40;6.60;;;2.40;;
85622;SDS011;76049;43.076;25.632;2024-02-23T10:08:47;8.10;;;4.10;;
85622;SDS011;76049;43.076;25.632;2024-02-23T10:13:55;6.70;;;3.50;;
85622;SDS011;76049;43.076;25.632;2024-02-23T10:19:02;6.60;;;3.20;;
85622;SDS011;76049;43.076;25.632;2024-02-23T10:24:11;7.90;;;3.20;;
85622;SDS011;76049;43.076;25.632;2024-02-23T10:29:18;5.70;;;2.90;;
85622;SDS011;76049;43.076;25.632;2024-02-23T10:34:25;6.70;;;3.10;;
85622;SDS011;76049;43.076;25.632;2024-02-23T10:39:35;6.70;;;4.10;;
85622;SDS011;76049;43.076;25.632;2024-02-23T10:44:44;8.30;;;5.80;;
85622;SDS011;76049;43.076;25.632;2024-02-23T10:49:52;7.30;;;4.20;;
85622;SDS011;76049;43.076;25.632;2024-02-23T10:55:01;5.90;;;2.80;;
85622;SDS011;76049;43.076;25.632;2024-02-23T11:08:08;7.60;;;3.70;;
85622;SDS011;76049;43.076;25.632;2024-02-23T11:13:19;6.80;;;3.30;;
85622;SDS011;76049;43.076;25.632;2024-02-23T11:18:49;8.40;;;4.50;;
85622;SDS011;76049;43.076;25.632;2024-02-23T11:24:15;7.10;;;4.10;;
85622;SDS011;76049;43.076;25.632;2024-02-23T11:29:25;7.90;;;3.40;;
85622;SDS011;76049;43.076;25.632;2024-02-23T11:34:37;5.60;;;2.40;;
85622;SDS011;76049;43.076;25.632;2024-02-23T11:39:44;7.50;;;4.40;;
85622;SDS011;76049;43.076;25.632;2024-02-23T11:44:52;9.00;;;3.20;;
85622;SDS011;76049;43.076;25.632;2024-02-23T11:50:02;7.70;;;3.30;;
85622;SDS011;76049;43.076;25.632;2024-02-23T11:55:11;6.00;;;2.60;;
85622;SDS011;76049;43.076;25.632;2024-02-23T12:00:24;6.70;;;2.80;;
85622;SDS011;76049;43.076;25.632;2024-02-23T12:05:34;6.90;;;3.60;;
85622;SDS011;76049;43.076;25.632;2024-02-23T12:10:41;8.30;;;3.60;;
85622;SDS011;76049;43.076;25.632;2024-02-23T12:15:53;7.00;;;2.60;;
85622;SDS011;76049;43.076;25.632;2024-02-23T12:21:07;5.10;;;2.20;;
85622;SDS011;76049;43.076;25.632;2024-02-23T12:26:15;6.40;;;2.90;;
85622;SDS011;76049;43.076;25.632;2024-02-23T12:31:26;6.70;;;3.30;;
85622;SDS011;76049;43.076;25.632;2024-02-23T12:41:39;6.20;;;3.50;;
85622;SDS011;76049;43.076;25.632;2024-02-23T12:46:47;8.30;;;2.70;;
85622;SDS011;76049;43.076;25.632;2024-02-23T12:51:55;6.40;;;3.00;;
85622;SDS011;76049;43.076;25.632;2024-02-23T12:57:02;8.00;;;3.40;;
85622;SDS011;76049;43.076;25.632;2024-02-23T13:02:09;7.40;;;3.80;;
85622;SDS011;76049;43.076;25.632;2024-02-23T13:07:18;7.10;;;3.80;;
85622;SDS011;76049;43.076;25.632;2024-02-23T13:12:25;6.40;;;3.10;;
85622;SDS011;76049;43.076;25.632;2024-02-23T13:17:33;7.00;;;3.50;;
85622;SDS011;76049;43.076;25.632;2024-02-23T13:22:40;6.80;;;3.30;;
85622;SDS011;76049;43.076;25.632;2024-02-23T13:27:48;9.50;;;4.50;;
85622;SDS011;76049;43.076;25.632;2024-02-23T13:32:55;7.80;;;4.90;;
85622;SDS011;76049;43.076;25.632;2024-02-23T13:38:03;8.30;;;4.20;;
85622;SDS011;76049;43.076;25.632;2024-02-23T13:43:11;6.50;;;3.50;;
85622;SDS011;76049;43.076;25.632;2024-02-23T13:48:18;7.40;;;3.50;;
85622;SDS011;76049;43.076;25.632;2024-02-23T13:53:26;6.40;;;3.20;;
85622;SDS011;76049;43.076;25.632;2024-02-23T13:58:34;7.00;;;3.20;;
85622;SDS011;76049;43.076;25.632;2024-02-23T14:03:43;6.70;;;3.70;;
85622;SDS011;76049;43.076;25.632;2024-02-23T14:08:52;8.00;;;3.00;;
85622;SDS011;76049;43.076;25.632;2024-02-23T14:13:59;10.80;;;3.40;;
85622;SDS011;76049;43.076;25.632;2024-02-23T14:19:07;6.20;;;2.80;;
85622;SDS011;76049;43.076;25.632;2024-02-23T14:24:15;7.40;;;3.40;;
85622;SDS011;76049;43.076;25.632;2024-02-23T14:37:20;6.30;;;3.20;;
85622;SDS011;76049;43.076;25.632;2024-02-23T14:42:28;7.10;;;3.40;;
85622;SDS011;76049;43.076;25.632;2024-02-23T14:47:35;5.20;;;2.50;;
85622;SDS011;76049;43.076;25.632;2024-02-23T14:52:42;7.30;;;2.70;;
85622;SDS011;76049;43.076;25.632;2024-02-23T14:57:50;6.40;;;2.90;;
85622;SDS011;76049;43.076;25.632;2024-02-23T15:02:57;7.40;;;3.30;;
85622;SDS011;76049;43.076;25.632;2024-02-23T15:08:06;7.80;;;3.40;;
85622;SDS011;76049;43.076;25.632;2024-02-23T15:13:13;8.60;;;5.00;;
85622;SDS011;76049;43.076;25.632;2024-02-23T15:18:21;9.90;;;4.60;;
85622;SDS011;76049;43.076;25.632;2024-02-23T15:23:28;8.30;;;3.50;;
85622;SDS011;76049;43.076;25.632;2024-02-23T15:28:36;8.80;;;4.80;;
85622;SDS011;76049;43.076;25.632;2024-02-23T15:33:44;10.30;;;5.50;;
85622;SDS011;76049;43.076;25.632;2024-02-23T15:38:51;8.50;;;3.80;;
85622;SDS011;76049;43.076;25.632;2024-02-23T15:44:02;7.90;;;3.10;;
85622;SDS011;76049;43.076;25.632;2024-02-23T15:49:10;7.30;;;3.40;;
85622;SDS011;76049;43.076;25.632;2024-02-23T15:54:18;9.40;;;3.40;;
85622;SDS011;76049;43.076;25.632;2024-02-23T15:59:26;8.50;;;4.20;;
85622;SDS011;76049;43.076;25.632;2024-02-23T16:04:35;8.80;;;4.00;;
85622;SDS011;76049;43.076;25.632;2024-02-23T16:09:42;9.00;;;5.00;;
85622;SDS011;76049;43.076;25.632;2024-02-23T16:14:50;7.60;;;3.40;;
85622;SDS011;76049;43.076;25.632;2024-02-23T16:19:57;6.00;;;2.70;;
85622;SDS011;76049;43.076;25.632;2024-02-23T16:33:02;9.00;;;4.00;;
85622;SDS011;76049;43.076;25.632;2024-02-23T16:38:10;8.30;;;2.40;;
85622;SDS011;76049;43.076;25.632;2024-02-23T16:43:18;9.70;;;3.20;;
85622;SDS011;76049;43.076;25.632;2024-02-23T16:48:25;9.70;;;4.20;;
85622;SDS011;76049;43.076;25.632;2024-02-23T16:53:33;8.00;;;3.30;;
85622;SDS011;76049;43.076;25.632;2024-02-23T16:58:40;6.90;;;3.00;;
85622;SDS011;76049;43.076;25.632;2024-02-23T17:03:48;9.80;;;4.80;;
85622;SDS011;76049;43.076;25.632;2024-02-23T17:08:55;10.40;;;4.90;;
85622;SDS011;76049;43.076;25.632;2024-02-23T17:14:03;12.10;;;5.60;;
85622;SDS011;76049;43.076;25.632;2024-02-23T17:19:10;11.60;;;5.40;;
85622;SDS011;76049;43.076;25.632;2024-02-23T17:24:18;9.90;;;3.50;;
85622;SDS011;76049;43.076;25.632;2024-02-23T17:29:26;13.00;;;5.30;;
85622;SDS011;76049;43.076;25.632;2024-02-23T17:34:33;71.80;;;32.10;;
85622;SDS011;76049;43.076;25.632;2024-02-23T17:47:39;9.80;;;4.10;;
85622;SDS011;76049;43.076;25.632;2024-02-23T17:52:47;11.80;;;5.80;;
85622;SDS011;76049;43.076;25.632;2024-02-23T17:57:54;12.10;;;5.60;;
85622;SDS011;76049;43.076;25.632;2024-02-23T18:03:02;12.80;;;3.60;;
85622;SDS011;76049;43.076;25.632;2024-02-23T18:08:12;7.80;;;3.00;;
85622;SDS011;76049;43.076;25.632;2024-02-23T18:13:20;6.70;;;2.70;;
85622;SDS011;76049;43.076;25.632;2024-02-23T18:18:27;8.60;;;3.40;;
85622;SDS011;76049;43.076;25.632;2024-02-23T18:23:35;11.20;;;4.60;;
85622;SDS011;76049;43.076;25.632;2024-02-23T18:28:43;7.40;;;3.40;;
85622;SDS011;76049;43.076;25.632;2024-02-23T18:33:50;8.10;;;3.60;;
85622;SDS011;76049;43.076;25.632;2024-02-23T18:38:58;9.90;;;3.40;;
85622;SDS011;76049;43.076;25.632;2024-02-23T18:44:10;10.20;;;3.70;;
85622;SDS011;76049;43.076;25.632;2024-02-23T18:49:18;11.60;;;4.20;;
85622;SDS011;76049;43.076;25.632;2024-02-23T18:54:25;7.90;;;3.50;;
85622;SDS011;76049;43.076;25.632;2024-02-23T18:59:32;11.20;;;4.50;;
85622;SDS011;76049;43.076;25.632;2024-02-23T19:04:39;12.30;;;5.10;;
85622;SDS011;76049;43.076;25.632;2024-02-23T19:09:47;9.20;;;5.20;;
85622;SDS011;76049;43.076;25.632;2024-02-23T19:14:54;11.70;;;5.30;;
85622;SDS011;76049;43.076;25.632;2024-02-23T19:20:02;10.60;;;4.80;;
85622;SDS011;76049;43.076;25.632;2024-02-23T19:30:19;9.50;;;4.80;;
85622;SDS011;76049;43.076;25.632;2024-02-23T19:35:26;18.20;;;7.90;;
85622;SDS011;76049;43.076;25.632;2024-02-23T19:40:34;16.70;;;9.40;;
85622;SDS011;76049;43.076;25.632;2024-02-23T19:45:41;12.20;;;5.00;;
85622;SDS011;76049;43.076;25.632;2024-02-23T19:50:49;11.10;;;6.40;;
85622;SDS011;76049;43.076;25.632;2024-02-23T19:55:57;9.90;;;5.80;;
85622;SDS011;76049;43.076;25.632;2024-02-23T20:01:04;7.80;;;3.90;;
85622;SDS011;76049;43.076;25.632;2024-02-23T20:06:11;16.70;;;7.10;;
85622;SDS011;76049;43.076;25.632;2024-02-23T20:11:18;14.10;;;6.40;;
85622;SDS011;76049;43.076;25.632;2024-02-23T20:16:26;16.80;;;5.40;;
85622;SDS011;76049;43.076;25.632;2024-02-23T20:21:33;9.00;;;4.10;;
85622;SDS011;76049;43.076;25.632;2024-02-23T20:26:46;8.80;;;4.70;;
85622;SDS011;76049;43.076;25.632;2024-02-23T20:31:53;7.90;;;4.00;;
85622;SDS011;76049;43.076;25.632;2024-02-23T20:37:00;9.40;;;5.70;;
85622;SDS011;76049;43.076;25.632;2024-02-23T20:42:08;10.00;;;5.20;;
85622;SDS011;76049;43.076;25.632;2024-02-23T20:47:17;9.90;;;5.40;;
85622;SDS011;76049;43.076;25.632;2024-02-23T20:52:24;11.30;;;7.70;;
85622;SDS011;76049;43.076;25.632;2024-02-23T20:57:31;8.10;;;4.40;;
85622;SDS011;76049;43.076;25.632;2024-02-23T21:02:39;8.20;;;4.70;;
85622;SDS011;76049;43.076;25.632;2024-02-23T21:07:46;9.30;;;3.60;;
85622;SDS011;76049;43.076;25.632;2024-02-23T21:12:54;9.30;;;4.40;;
85622;SDS011;76049;43.076;25.632;2024-02-23T21:18:01;11.70;;;5.30;;
85622;SDS011;76049;43.076;25.632;2024-02-23T21:23:12;9.20;;;5.60;;
85622;SDS011;76049;43.076;25.632;2024-02-23T21:28:20;8.30;;;4.40;;
85622;SDS011;76049;43.076;25.632;2024-02-23T21:33:28;7.90;;;3.80;;
85622;SDS011;76049;43.076;25.632;2024-02-23T21:38:35;7.80;;;3.70;;
85622;SDS011;76049;43.076;25.632;2024-02-23T21:43:43;7.20;;;3.00;;
85622;SDS011;76049;43.076;25.632;2024-02-23T21:48:50;9.20;;;4.80;;
85622;SDS011;76049;43.076;25.632;2024-02-23T21:53:57;7.30;;;4.50;;
85622;SDS011;76049;43.076;25.632;2024-02-23T21:59:05;10.20;;;5.70;;
85622;SDS011;76049;43.076;25.632;2024-02-23T22:12:06;12.30;;;5.50;;
85622;SDS011;76049;43.076;25.632;2024-02-23T22:17:14;20.10;;;9.70;;
85622;SDS011;76049;43.076;25.632;2024-02-23T22:22:21;19.70;;;10.60;;
85622;SDS011;76049;43.076;25.632;2024-02-23T22:27:29;15.00;;;8.30;;
85622;SDS011;76049;43.076;25.632;2024-02-23T22:32:37;10.80;;;6.70;;
85622;SDS011;76049;43.076;25.632;2024-02-23T22:37:45;17.80;;;10.90;;
85622;SDS011;76049;43.076;25.632;2024-02-23T22:42:53;19.70;;;11.90;;
85622;SDS011;76049;43.076;25.632;2024-02-23T22:48:00;20.10;;;11.00;;
85622;SDS011;76049;43.076;25.632;2024-02-23T22:53:08;15.20;;;8.40;;
85622;SDS011;76049;43.076;25.632;2024-02-23T22:58:15;14.00;;;7.40;;
85622;SDS011;76049;43.076;25.632;2024-02-23T23:03:23;15.10;;;8.20;;
85622;SDS011;76049;43.076;25.632;2024-02-23T23:08:30;11.10;;;5.70;;
85622;SDS011;76049;43.076;25.632;2024-02-23T23:13:37;13.60;;;8.10;;
85622;SDS011;76049;43.076;25.632;2024-02-23T23:18:45;17.90;;;9.10;;
85622;SDS011;76049;43.076;25.632;2024-02-23T23:23:53;21.20;;;8.80;;
85622;SDS011;76049;43.076;25.632;2024-02-23T23:29:00;8.80;;;4.90;;
85622;SDS011;76049;43.076;25.632;2024-02-23T23:34:07;13.40;;;8.30;;
85622;SDS011;76049;43.076;25.632;2024-02-23T23:39:15;16.50;;;9.70;;
85622;SDS011;76049;43.076;25.632;2024-02-23T23:44:23;12.10;;;6.70;;
85622;SDS011;76049;43.076;25.632;2024-02-23T23:49:30;17.20;;;8.40;;
85622;SDS011;76049;43.076;25.632;2024-02-23T23:54:38;14.00;;;6.60;;
85622;SDS011;76049;43.076;25.632;2024-02-23T23:59:45;12.30;;;7.20;;
